sensor_id;sensor_type;location;lat;lon;timestamp;pressure;altitude;pressure_sealevel;temperature;humidity
14269;BME280;7218;51.480;7.006;2023-05-12T00:00:15;100268.13;;;12.91;100.00
14269;BME280;7218;51.480;7.006;2023-05-12T00:02:43;100263.97;;;13.15;100.00
14269;BME280;7218;51.480;7.006;2023-05-12T00:05:10;100263.13;;;13.15;100.00
14269;BME280;7218;51.480;7.006;2023-05-12T00:07:36;100263.06;;;13.16;100.00
14269;BME280;7218;51.480;7.006;2023-05-12T00:10:03;100255.00;;;13.24;100.00
14269;BME280;7218;51.480;7.006;2023-05-12T00:12:30;100250.47;;;13.29;100.00
14269;BME280;7218;51.480;7.006;2023-05-12T00:14:57;100249.84;;;13.21;100.00
14269;BME280;7218;51.480;7.006;2023-05-12T00:17:23;100246.25;;;13.25;100.00
14269;BME280;7218;51.480;7.006;2023-05-12T00:19:53;100251.94;;;13.38;100.00
14269;BME280;7218;51.480;7.006;2023-05-12T00:22:19;100245.31;;;13.26;100.00
14269;BME280;7218;51.480;7.006;2023-05-12T00:24:46;100244.31;;;13.30;100.00
14269;BME280;7218;51.480;7.006;2023-05-12T00:27:12;100245.13;;;13.32;100.00
14269;BME280;7218;51.480;7.006;2023-05-12T00:29:39;100242.41;;;13.35;100.00
14269;BME280;7218;51.480;7.006;2023-05-12T00:32:05;100243.25;;;13.35;100.00
14269;BME280;7218;51.480;7.006;2023-05-12T00:34:32;100237.16;;;13.35;100.00
14269;BME280;7218;51.480;7.006;2023-05-12T00:37:00;100236.03;;;13.44;100.00
14269;BME280;7218;51.480;7.006;2023-05-12T00:39:26;100232.03;;;13.32;100.00
14269;BME280;7218;51.480;7.006;2023-05-12T00:41:54;100229.19;;;13.40;100.00
14269;BME280;7218;51.480;7.006;2023-05-12T00:44:21;100235.56;;;13.31;100.00
14269;BME280;7218;51.480;7.006;2023-05-12T00:46:47;100237.06;;;13.40;100.00
14269;BME280;7218;51.480;7.006;2023-05-12T00:49:14;100241.31;;;13.42;100.00
14269;BME280;7218;51.480;7.006;2023-05-12T00:51:41;100229.84;;;13.46;100.00
14269;BME280;7218;51.480;7.006;2023-05-12T00:54:09;100235.94;;;13.47;100.00
14269;BME280;7218;51.480;7.006;2023-05-12T00:56:36;100234.94;;;13.51;100.00
14269;BME280;7218;51.480;7.006;2023-05-12T00:59:03;100227.13;;;13.49;100.00
14269;BME280;7218;51.480;7.006;2023-05-12T01:01:30;100237.53;;;13.51;100.00
14269;BME280;7218;51.480;7.006;2023-05-12T01:03:56;100235.75;;;13.53;100.00
14269;BME280;7218;51.480;7.006;2023-05-12T01:06:26;100235.44;;;13.62;100.00
14269;BME280;7218;51.480;7.006;2023-05-12T01:08:54;100234.78;;;13.55;100.00
14269;BME280;7218;51.480;7.006;2023-05-12T01:11:22;100238.81;;;13.65;100.00
14269;BME280;7218;51.480;7.006;2023-05-12T01:13:48;100233.84;;;13.58;100.00
14269;BME280;7218;51.480;7.006;2023-05-12T01:16:18;100229.09;;;13.69;100.00
14269;BME280;7218;51.480;7.006;2023-05-12T01:18:49;100229.25;;;13.64;100.00
14269;BME280;7218;51.480;7.006;2023-05-12T01:21:18;100230.25;;;13.60;100.00
14269;BME280;7218;51.480;7.006;2023-05-12T01:23:48;100232.59;;;13.69;100.00
14269;BME280;7218;51.480;7.006;2023-05-12T01:26:18;100231.91;;;13.63;100.00
14269;BME280;7218;51.480;7.006;2023-05-12T01:28:45;100226.78;;;13.60;100.00
14269;BME280;7218;51.480;7.006;2023-05-12T01:31:13;100230.34;;;13.57;100.00
14269;BME280;7218;51.480;7.006;2023-05-12T01:33:41;100231.38;;;13.53;100.00
14269;BME280;7218;51.480;7.006;2023-05-12T01:36:07;100230.84;;;13.42;100.00
14269;BME280;7218;51.480;7.006;2023-05-12T01:38:34;100228.22;;;13.42;100.00
14269;BME280;7218;51.480;7.006;2023-05-12T01:41:00;100230.72;;;13.45;100.00
14269;BME280;7218;51.480;7.006;2023-05-12T01:43:28;100238.97;;;13.61;100.00
14269;BME280;7218;51.480;7.006;2023-05-12T01:45:55;100241.09;;;13.50;100.00
14269;BME280;7218;51.480;7.006;2023-05-12T01:48:21;100239.38;;;13.49;100.00
14269;BME280;7218;51.480;7.006;2023-05-12T01:50:47;100243.00;;;13.45;100.00
14269;BME280;7218;51.480;7.006;2023-05-12T01:53:14;100246.59;;;13.41;100.00
14269;BME280;7218;51.480;7.006;2023-05-12T01:55:40;100248.47;;;13.37;100.00
14269;BME280;7218;51.480;7.006;2023-05-12T01:58:07;100251.09;;;13.37;100.00
14269;BME280;7218;51.480;7.006;2023-05-12T02:00:35;100252.50;;;13.47;100.00
14269;BME280;7218;51.480;7.006;2023-05-12T02:03:01;100253.75;;;13.35;100.00
14269;BME280;7218;51.480;7.006;2023-05-12T02:05:28;100248.66;;;13.31;100.00
14269;BME280;7218;51.480;7.006;2023-05-12T02:07:55;100256.28;;;13.39;100.00
14269;BME280;7218;51.480;7.006;2023-05-12T02:10:22;100257.31;;;13.33;100.00
14269;BME280;7218;51.480;7.006;2023-05-12T02:12:48;100259.28;;;13.26;100.00
14269;BME280;7218;51.480;7.006;2023-05-12T02:15:15;100265.41;;;13.25;100.00
14269;BME280;7218;51.480;7.006;2023-05-12T02:17:42;100263.47;;;13.32;100.00
14269;BME280;7218;51.480;7.006;2023-05-12T02:20:10;100265.25;;;13.30;100.00
14269;BME280;7218;51.480;7.006;2023-05-12T02:22:37;100271.59;;;13.23;100.00
14269;BME280;7218;51.480;7.006;2023-05-12T02:25:04;100268.81;;;13.29;100.00
14269;BME280;7218;51.480;7.006;2023-05-12T02:27:30;100274.13;;;13.26;100.00
14269;BME280;7218;51.480;7.006;2023-05-12T02:29:57;100277.66;;;13.25;100.00
14269;BME280;7218;51.480;7.006;2023-05-12T02:32:23;100274.53;;;13.12;100.00
14269;BME280;7218;51.480;7.006;2023-05-12T02:34:53;100278.50;;;13.25;100.00
14269;BME280;7218;51.480;7.006;2023-05-12T02:37:20;100278.91;;;13.10;100.00
14269;BME280;7218;51.480;7.006;2023-05-12T02:39:46;100281.69;;;13.06;100.00
14269;BME280;7218;51.480;7.006;2023-05-12T02:42:13;100280.81;;;13.05;100.00
14269;BME280;7218;51.480;7.006;2023-05-12T02:44:39;100289.03;;;12.93;100.00
14269;BME280;7218;51.480;7.006;2023-05-12T02:47:06;100277.00;;;12.87;100.00
14269;BME280;7218;51.480;7.006;2023-05-12T02:49:32;100285.84;;;12.83;100.00
14269;BME280;7218;51.480;7.006;2023-05-12T02:52:00;100284.50;;;13.00;100.00
14269;BME280;7218;51.480;7.006;2023-05-12T02:54:27;100283.94;;;12.88;100.00
14269;BME280;7218;51.480;7.006;2023-05-12T02:56:53;100281.16;;;12.94;100.00
14269;BME280;7218;51.480;7.006;2023-05-12T02:59:22;100283.78;;;12.94;100.00
14269;BME280;7218;51.480;7.006;2023-05-12T03:01:48;100289.00;;;12.94;100.00
14269;BME280;7218;51.480;7.006;2023-05-12T03:04:15;100283.94;;;12.88;100.00
14269;BME280;7218;51.480;7.006;2023-05-12T03:06:41;100284.81;;;12.89;100.00
14269;BME280;7218;51.480;7.006;2023-05-12T03:09:09;100284.81;;;12.89;100.00
14269;BME280;7218;51.480;7.006;2023-05-12T03:11:36;100283.28;;;12.80;100.00
14269;BME280;7218;51.480;7.006;2023-05-12T03:14:02;100279.78;;;12.81;100.00
14269;BME280;7218;51.480;7.006;2023-05-12T03:16:28;100278.97;;;12.79;100.00
14269;BME280;7218;51.480;7.006;2023-05-12T03:18:55;100284.94;;;12.84;100.00
14269;BME280;7218;51.480;7.006;2023-05-12T03:21:21;100290.22;;;12.83;100.00
14269;BME280;7218;51.480;7.006;2023-05-12T03:23:48;100295.53;;;12.80;100.00
14269;BME280;7218;51.480;7.006;2023-05-12T03:26:18;100291.75;;;12.90;100.00
14269;BME280;7218;51.480;7.006;2023-05-12T03:28:44;100293.75;;;12.80;100.00
14269;BME280;7218;51.480;7.006;2023-05-12T03:31:11;100294.81;;;12.75;100.00
14269;BME280;7218;51.480;7.006;2023-05-12T03:33:37;100286.88;;;12.78;100.00
14269;BME280;7218;51.480;7.006;2023-05-12T03:36:04;100297.47;;;12.73;100.00
14269;BME280;7218;51.480;7.006;2023-05-12T03:38:31;100300.16;;;12.70;100.00
14269;BME280;7218;51.480;7.006;2023-05-12T03:41:03;100287.47;;;12.87;100.00
14269;BME280;7218;51.480;7.006;2023-05-12T03:43:31;100292.97;;;12.78;100.00
14269;BME280;7218;51.480;7.006;2023-05-12T03:45:58;100294.13;;;12.68;100.00
14269;BME280;7218;51.480;7.006;2023-05-12T03:48:25;100302.38;;;12.53;100.00
14269;BME280;7218;51.480;7.006;2023-05-12T03:50:51;100298.72;;;12.60;100.00
14269;BME280;7218;51.480;7.006;2023-05-12T03:53:18;100300.22;;;12.69;100.00
14269;BME280;7218;51.480;7.006;2023-05-12T03:55:44;100306.47;;;12.63;100.00
14269;BME280;7218;51.480;7.006;2023-05-12T03:58:11;100304.09;;;12.54;100.00
14269;BME280;7218;51.480;7.006;2023-05-12T04:00:39;100299.50;;;12.62;100.00
14269;BME280;7218;51.480;7.006;2023-05-12T04:03:05;100304.03;;;12.56;100.00
14269;BME280;7218;51.480;7.006;2023-05-12T04:05:31;100306.78;;;12.51;100.00
14269;BME280;7218;51.480;7.006;2023-05-12T04:07:58;100306.78;;;12.51;100.00
14269;BME280;7218;51.480;7.006;2023-05-12T04:10:24;100309.50;;;12.48;100.00
14269;BME280;7218;51.480;7.006;2023-05-12T04:12:51;100318.91;;;12.55;100.00
14269;BME280;7218;51.480;7.006;2023-05-12T04:15:18;100314.41;;;12.60;100.00
14269;BME280;7218;51.480;7.006;2023-05-12T04:17:46;100321.25;;;12.64;100.00
14269;BME280;7218;51.480;7.006;2023-05-12T04:20:14;100322.53;;;12.49;100.00
14269;BME280;7218;51.480;7.006;2023-05-12T04:22:40;100324.06;;;12.57;100.00
14269;BME280;7218;51.480;7.006;2023-05-12T04:25:08;100332.63;;;12.63;100.00
14269;BME280;7218;51.480;7.006;2023-05-12T04:27:35;100332.63;;;12.63;100.00
14269;BME280;7218;51.480;7.006;2023-05-12T04:30:01;100337.97;;;12.59;100.00
14269;BME280;7218;51.480;7.006;2023-05-12T04:32:28;100342.22;;;12.63;100.00
14269;BME280;7218;51.480;7.006;2023-05-12T04:34:56;100342.72;;;12.77;100.00
14269;BME280;7218;51.480;7.006;2023-05-12T04:37:23;100344.69;;;12.69;100.00
14269;BME280;7218;51.480;7.006;2023-05-12T04:39:49;100342.19;;;12.64;100.00
14269;BME280;7218;51.480;7.006;2023-05-12T04:42:16;100351.81;;;12.64;100.00
14269;BME280;7218;51.480;7.006;2023-05-12T04:44:42;100356.00;;;12.69;100.00
14269;BME280;7218;51.480;7.006;2023-05-12T04:47:10;100360.25;;;12.73;100.00
14269;BME280;7218;51.480;7.006;2023-05-12T04:49:36;100362.25;;;12.64;100.00
14269;BME280;7218;51.480;7.006;2023-05-12T04:52:05;100362.59;;;12.84;100.00
14269;BME280;7218;51.480;7.006;2023-05-12T04:54:31;100361.97;;;12.74;100.00
14269;BME280;7218;51.480;7.006;2023-05-12T04:56:57;100371.44;;;12.80;100.00
14269;BME280;7218;51.480;7.006;2023-05-12T04:59:24;100370.22;;;12.91;100.00
14269;BME280;7218;51.480;7.006;2023-05-12T05:01:51;100378.22;;;12.85;100.00
14269;BME280;7218;51.480;7.006;2023-05-12T05:04:18;100384.13;;;12.93;100.00
14269;BME280;7218;51.480;7.006;2023-05-12T05:06:47;100393.72;;;12.94;100.00
14269;BME280;7218;51.480;7.006;2023-05-12T05:09:15;100394.94;;;13.14;100.00
14269;BME280;7218;51.480;7.006;2023-05-12T05:11:41;100402.09;;;13.06;100.00
14269;BME280;7218;51.480;7.006;2023-05-12T05:14:08;100406.34;;;13.11;100.00
14269;BME280;7218;51.480;7.006;2023-05-12T05:16:34;100409.06;;;13.07;100.00
14269;BME280;7218;51.480;7.006;2023-05-12T05:19:01;100413.50;;;13.05;100.00
14269;BME280;7218;51.480;7.006;2023-05-12T05:21:27;100419.41;;;13.13;100.00
14269;BME280;7218;51.480;7.006;2023-05-12T05:23:54;100427.03;;;13.20;100.00
14269;BME280;7218;51.480;7.006;2023-05-12T05:26:22;100430.31;;;13.28;100.00
14269;BME280;7218;51.480;7.006;2023-05-12T05:28:49;100432.97;;;13.27;100.00
14269;BME280;7218;51.480;7.006;2023-05-12T05:31:19;100437.22;;;13.31;100.00
14269;BME280;7218;51.480;7.006;2023-05-12T05:33:46;100442.38;;;13.34;100.00
14269;BME280;7218;51.480;7.006;2023-05-12T05:36:13;100444.09;;;13.35;100.00
14269;BME280;7218;51.480;7.006;2023-05-12T05:38:40;100441.22;;;13.44;100.00
14269;BME280;7218;51.480;7.006;2023-05-12T05:41:07;100446.34;;;13.49;100.00
14269;BME280;7218;51.480;7.006;2023-05-12T05:43:35;100451.28;;;13.59;100.00
14269;BME280;7218;51.480;7.006;2023-05-12T05:46:02;100454.84;;;13.55;100.00
14269;BME280;7218;51.480;7.006;2023-05-12T05:48:28;100458.00;;;13.68;100.00
14269;BME280;7218;51.480;7.006;2023-05-12T05:50:55;100451.06;;;13.65;100.00
14269;BME280;7218;51.480;7.006;2023-05-12T05:53:21;100454.50;;;13.67;100.00
14269;BME280;7218;51.480;7.006;2023-05-12T05:55:48;100452.63;;;13.72;100.00
14269;BME280;7218;51.480;7.006;2023-05-12T05:58:14;100457.97;;;13.69;100.00
14269;BME280;7218;51.480;7.006;2023-05-12T06:00:42;100458.53;;;13.79;100.00
14269;BME280;7218;51.480;7.006;2023-05-12T06:03:09;100461.31;;;13.74;100.00
14269;BME280;7218;51.480;7.006;2023-05-12T06:05:35;100461.03;;;14.11;100.00
14269;BME280;7218;51.480;7.006;2023-05-12T06:08:02;100461.84;;;14.43;100.00
14269;BME280;7218;51.480;7.006;2023-05-12T06:10:29;100464.41;;;14.44;100.00
14269;BME280;7218;51.480;7.006;2023-05-12T06:12:56;100466.63;;;14.56;100.00
14269;BME280;7218;51.480;7.006;2023-05-12T06:15:22;100467.09;;;14.69;100.00
14269;BME280;7218;51.480;7.006;2023-05-12T06:17:50;100470.03;;;14.85;100.00
14269;BME280;7218;51.480;7.006;2023-05-12T06:20:17;100474.31;;;14.89;100.00
14269;BME280;7218;51.480;7.006;2023-05-12T06:22:44;100481.69;;;14.78;100.00
14269;BME280;7218;51.480;7.006;2023-05-12T06:25:10;100479.25;;;14.98;100.00
14269;BME280;7218;51.480;7.006;2023-05-12T06:27:37;100481.03;;;14.96;100.00
14269;BME280;7218;51.480;7.006;2023-05-12T06:30:04;100488.72;;;15.02;100.00
14269;BME280;7218;51.480;7.006;2023-05-12T06:32:31;100492.75;;;15.12;100.00
14269;BME280;7218;51.480;7.006;2023-05-12T06:34:59;100485.41;;;15.22;100.00
14269;BME280;7218;51.480;7.006;2023-05-12T06:37:25;100492.25;;;15.01;100.00
14269;BME280;7218;51.480;7.006;2023-05-12T06:39:52;100495.16;;;14.93;100.00
14269;BME280;7218;51.480;7.006;2023-05-12T06:42:18;100497.50;;;15.01;100.00
14269;BME280;7218;51.480;7.006;2023-05-12T06:44:45;100496.44;;;14.80;100.00
14269;BME280;7218;51.480;7.006;2023-05-12T06:47:11;100498.03;;;14.86;100.00
14269;BME280;7218;51.480;7.006;2023-05-12T06:49:38;100503.81;;;14.95;100.00
14269;BME280;7218;51.480;7.006;2023-05-12T06:52:06;100505.75;;;15.15;100.00
14269;BME280;7218;51.480;7.006;2023-05-12T06:54:33;100501.81;;;15.03;100.00
14269;BME280;7218;51.480;7.006;2023-05-12T06:56:59;100511.78;;;14.94;100.00
14269;BME280;7218;51.480;7.006;2023-05-12T06:59:26;100508.91;;;15.00;100.00
14269;BME280;7218;51.480;7.006;2023-05-12T07:01:52;100509.78;;;15.00;100.00
14269;BME280;7218;51.480;7.006;2023-05-12T07:04:19;100512.41;;;15.00;100.00
14269;BME280;7218;51.480;7.006;2023-05-12T07:06:45;100513.81;;;15.11;100.00
14269;BME280;7218;51.480;7.006;2023-05-12T07:09:13;100516.28;;;15.15;100.00
14269;BME280;7218;51.480;7.006;2023-05-12T07:11:42;100520.94;;;15.07;100.00
14269;BME280;7218;51.480;7.006;2023-05-12T07:14:09;100518.44;;;15.04;100.00
14269;BME280;7218;51.480;7.006;2023-05-12T07:16:36;100512.59;;;14.94;100.00
14269;BME280;7218;51.480;7.006;2023-05-12T07:19:02;100525.25;;;14.83;100.00
14269;BME280;7218;51.480;7.006;2023-05-12T07:21:30;100526.66;;;14.93;100.00
14269;BME280;7218;51.480;7.006;2023-05-12T07:23:57;100522.66;;;14.82;100.00
14269;BME280;7218;51.480;7.006;2023-05-12T07:26:25;100540.22;;;14.80;100.00
14269;BME280;7218;51.480;7.006;2023-05-12T07:28:52;100536.88;;;14.75;100.00
14269;BME280;7218;51.480;7.006;2023-05-12T07:31:19;100537.75;;;14.75;100.00
14269;BME280;7218;51.480;7.006;2023-05-12T07:33:45;100553.03;;;14.62;100.00
14269;BME280;7218;51.480;7.006;2023-05-12T07:36:12;100546.03;;;14.63;100.00
14269;BME280;7218;51.480;7.006;2023-05-12T07:38:38;100552.19;;;14.62;100.00
14269;BME280;7218;51.480;7.006;2023-05-12T07:41:05;100550.31;;;14.65;100.00
14269;BME280;7218;51.480;7.006;2023-05-12T07:43:33;100548.34;;;14.72;100.00
14269;BME280;7218;51.480;7.006;2023-05-12T07:45:59;100552.84;;;14.69;100.00
14269;BME280;7218;51.480;7.006;2023-05-12T07:48:26;100553.66;;;14.71;100.00
14269;BME280;7218;51.480;7.006;2023-05-12T07:50:53;100549.22;;;14.73;100.00
14269;BME280;7218;51.480;7.006;2023-05-12T07:53:19;100551.81;;;14.74;100.00
14269;BME280;7218;51.480;7.006;2023-05-12T07:55:46;100558.56;;;14.81;100.00
14269;BME280;7218;51.480;7.006;2023-05-12T07:58:12;100556.66;;;14.86;100.00
14269;BME280;7218;51.480;7.006;2023-05-12T08:00:40;100560.88;;;14.90;100.00
14269;BME280;7218;51.480;7.006;2023-05-12T08:03:07;100556.16;;;15.01;100.00
14269;BME280;7218;51.480;7.006;2023-05-12T08:05:34;100559.28;;;15.13;100.00
14269;BME280;7218;51.480;7.006;2023-05-12T08:08:00;100563.34;;;15.21;100.00
14269;BME280;7218;51.480;7.006;2023-05-12T08:10:27;100571.00;;;15.29;100.00
14269;BME280;7218;51.480;7.006;2023-05-12T08:12:54;100573.34;;;15.36;100.00
14269;BME280;7218;51.480;7.006;2023-05-12T08:15:20;100568.91;;;15.38;100.00
14269;BME280;7218;51.480;7.006;2023-05-12T08:17:48;100571.09;;;15.50;100.00
14269;BME280;7218;51.480;7.006;2023-05-12T08:20:15;100572.72;;;15.55;100.00
14269;BME280;7218;51.480;7.006;2023-05-12T08:22:42;100574.19;;;15.63;100.00
14269;BME280;7218;51.480;7.006;2023-05-12T08:25:15;100574.03;;;15.68;100.00
14269;BME280;7218;51.480;7.006;2023-05-12T08:27:41;100576.06;;;15.60;100.00
14269;BME280;7218;51.480;7.006;2023-05-12T08:30:08;100580.84;;;15.73;100.00
14269;BME280;7218;51.480;7.006;2023-05-12T08:32:35;100576.97;;;15.83;100.00
14269;BME280;7218;51.480;7.006;2023-05-12T08:35:04;100580.88;;;15.97;100.00
14269;BME280;7218;51.480;7.006;2023-05-12T08:37:30;100582.47;;;16.01;100.00
14269;BME280;7218;51.480;7.006;2023-05-12T08:39:57;100580.34;;;16.10;100.00
14269;BME280;7218;51.480;7.006;2023-05-12T08:42:29;100581.19;;;16.34;100.00
14269;BME280;7218;51.480;7.006;2023-05-12T08:45:01;100577.84;;;16.30;100.00
14269;BME280;7218;51.480;7.006;2023-05-12T08:47:28;100586.31;;;16.62;100.00
14269;BME280;7218;51.480;7.006;2023-05-12T08:49:58;100583.44;;;16.68;100.00
14269;BME280;7218;51.480;7.006;2023-05-12T08:52:28;100590.97;;;16.77;100.00
14269;BME280;7218;51.480;7.006;2023-05-12T08:54:55;100593.28;;;16.85;100.00
14269;BME280;7218;51.480;7.006;2023-05-12T08:57:22;100595.09;;;17.04;100.00
14269;BME280;7218;51.480;7.006;2023-05-12T08:59:51;100590.06;;;17.20;100.00
14269;BME280;7218;51.480;7.006;2023-05-12T09:02:20;100591.28;;;17.33;100.00
14269;BME280;7218;51.480;7.006;2023-05-12T09:04:46;100587.72;;;17.34;100.00
14269;BME280;7218;51.480;7.006;2023-05-12T09:07:13;100589.13;;;17.43;100.00
14269;BME280;7218;51.480;7.006;2023-05-12T09:09:43;100591.34;;;17.52;98.33
14269;BME280;7218;51.480;7.006;2023-05-12T09:12:12;100595.63;;;17.54;98.82
14269;BME280;7218;51.480;7.006;2023-05-12T09:14:41;100599.28;;;17.52;99.42
14269;BME280;7218;51.480;7.006;2023-05-12T09:17:10;100603.31;;;17.60;99.34
14269;BME280;7218;51.480;7.006;2023-05-12T09:19:37;100602.00;;;17.71;98.32
14269;BME280;7218;51.480;7.006;2023-05-12T09:22:03;100605.56;;;17.70;97.62
14269;BME280;7218;51.480;7.006;2023-05-12T09:24:34;100599.06;;;17.97;97.30
14269;BME280;7218;51.480;7.006;2023-05-12T09:27:03;100609.53;;;17.98;95.69
14269;BME280;7218;51.480;7.006;2023-05-12T09:29:30;100608.53;;;18.21;95.35
14269;BME280;7218;51.480;7.006;2023-05-12T09:31:58;100624.81;;;18.49;95.05
14269;BME280;7218;51.480;7.006;2023-05-12T09:34:26;100614.66;;;18.40;91.10
14269;BME280;7218;51.480;7.006;2023-05-12T09:36:54;100613.59;;;18.44;89.98
14269;BME280;7218;51.480;7.006;2023-05-12T09:39:21;100613.09;;;18.18;88.84
14269;BME280;7218;51.480;7.006;2023-05-12T09:41:48;100620.81;;;18.41;89.35
14269;BME280;7218;51.480;7.006;2023-05-12T09:44:16;100614.41;;;18.28;88.43
14269;BME280;7218;51.480;7.006;2023-05-12T09:46:43;100618.50;;;18.33;88.19
14269;BME280;7218;51.480;7.006;2023-05-12T09:49:10;100612.28;;;18.55;90.69
14269;BME280;7218;51.480;7.006;2023-05-12T09:51:37;100614.94;;;18.53;87.76
14269;BME280;7218;51.480;7.006;2023-05-12T09:54:05;100622.00;;;18.34;85.24
14269;BME280;7218;51.480;7.006;2023-05-12T09:56:32;100622.72;;;18.58;87.21
14269;BME280;7218;51.480;7.006;2023-05-12T09:59:03;100615.44;;;18.63;84.63
14269;BME280;7218;51.480;7.006;2023-05-12T10:01:31;100617.44;;;18.58;87.35
14269;BME280;7218;51.480;7.006;2023-05-12T10:03:58;100628.81;;;18.58;88.55
14269;BME280;7218;51.480;7.006;2023-05-12T10:06:27;100622.19;;;18.68;86.54
14269;BME280;7218;51.480;7.006;2023-05-12T10:09:03;100613.53;;;19.02;86.08
14269;BME280;7218;51.480;7.006;2023-05-12T10:11:31;100622.25;;;18.85;84.53
14269;BME280;7218;51.480;7.006;2023-05-12T10:13:58;100613.13;;;19.10;83.43
14269;BME280;7218;51.480;7.006;2023-05-12T10:16:26;100618.69;;;19.22;84.39
14269;BME280;7218;51.480;7.006;2023-05-12T10:18:55;100621.56;;;19.35;84.17
14269;BME280;7218;51.480;7.006;2023-05-12T10:21:23;100612.81;;;19.52;83.53
14269;BME280;7218;51.480;7.006;2023-05-12T10:23:51;100620.03;;;19.48;81.45
14269;BME280;7218;51.480;7.006;2023-05-12T10:26:23;100613.94;;;19.29;78.60
14269;BME280;7218;51.480;7.006;2023-05-12T10:28:50;100623.81;;;19.25;81.48
14269;BME280;7218;51.480;7.006;2023-05-12T10:31:18;100620.59;;;19.19;83.13
14269;BME280;7218;51.480;7.006;2023-05-12T10:33:56;100626.47;;;19.25;82.58
14269;BME280;7218;51.480;7.006;2023-05-12T10:36:23;100628.88;;;19.30;82.95
14269;BME280;7218;51.480;7.006;2023-05-12T10:38:50;100623.28;;;19.36;81.01
14269;BME280;7218;51.480;7.006;2023-05-12T10:41:28;100616.53;;;19.65;81.53
14269;BME280;7218;51.480;7.006;2023-05-12T10:43:54;100618.25;;;19.66;80.63
14269;BME280;7218;51.480;7.006;2023-05-12T10:46:21;100628.69;;;19.86;82.25
14269;BME280;7218;51.480;7.006;2023-05-12T10:48:51;100627.34;;;19.95;81.62
14269;BME280;7218;51.480;7.006;2023-05-12T10:51:20;100628.69;;;19.86;79.57
14269;BME280;7218;51.480;7.006;2023-05-12T10:53:51;100625.63;;;19.94;79.04
14269;BME280;7218;51.480;7.006;2023-05-12T10:56:25;100618.28;;;19.99;77.25
14269;BME280;7218;51.480;7.006;2023-05-12T10:59:10;100617.34;;;20.00;77.89
14269;BME280;7218;51.480;7.006;2023-05-12T11:01:37;100624.69;;;19.77;78.06
14269;BME280;7218;51.480;7.006;2023-05-12T11:04:14;100624.28;;;20.02;77.41
14269;BME280;7218;51.480;7.006;2023-05-12T11:06:45;100624.00;;;20.24;77.63
14269;BME280;7218;51.480;7.006;2023-05-12T11:09:23;100618.53;;;20.27;75.54
14269;BME280;7218;51.480;7.006;2023-05-12T11:11:50;100622.97;;;20.59;76.48
14269;BME280;7218;51.480;7.006;2023-05-12T11:14:17;100622.53;;;20.51;74.15
14269;BME280;7218;51.480;7.006;2023-05-12T11:16:44;100624.47;;;20.48;74.09
14269;BME280;7218;51.480;7.006;2023-05-12T11:19:11;100616.19;;;20.38;74.84
14269;BME280;7218;51.480;7.006;2023-05-12T11:21:38;100612.06;;;20.33;75.54
14269;BME280;7218;51.480;7.006;2023-05-12T11:24:07;100621.34;;;20.41;75.97
14269;BME280;7218;51.480;7.006;2023-05-12T11:26:36;100615.69;;;20.32;76.21
14269;BME280;7218;51.480;7.006;2023-05-12T11:29:04;100624.38;;;20.34;77.18
14269;BME280;7218;51.480;7.006;2023-05-12T11:31:31;100621.34;;;20.41;76.11
14269;BME280;7218;51.480;7.006;2023-05-12T11:34:02;100619.13;;;20.65;73.89
14269;BME280;7218;51.480;7.006;2023-05-12T11:36:35;100619.13;;;20.81;73.90
14269;BME280;7218;51.480;7.006;2023-05-12T11:39:01;100614.03;;;21.08;72.56
14269;BME280;7218;51.480;7.006;2023-05-12T11:41:31;100613.94;;;21.40;73.15
14269;BME280;7218;51.480;7.006;2023-05-12T11:43:58;100614.88;;;21.39;71.41
14269;BME280;7218;51.480;7.006;2023-05-12T11:46:26;100618.94;;;21.15;71.03
14269;BME280;7218;51.480;7.006;2023-05-12T11:48:56;100626.44;;;21.23;72.67
14269;BME280;7218;51.480;7.006;2023-05-12T11:51:24;100630.94;;;20.91;74.43
14269;BME280;7218;51.480;7.006;2023-05-12T11:53:51;100623.72;;;20.93;73.58
14269;BME280;7218;51.480;7.006;2023-05-12T11:56:19;100633.84;;;21.02;74.25
14269;BME280;7218;51.480;7.006;2023-05-12T11:58:54;100628.94;;;21.10;72.79
14269;BME280;7218;51.480;7.006;2023-05-12T12:01:22;100632.28;;;21.14;72.55
14269;BME280;7218;51.480;7.006;2023-05-12T12:03:49;100628.34;;;21.21;72.21
14269;BME280;7218;51.480;7.006;2023-05-12T12:06:16;100631.47;;;21.27;71.59
14269;BME280;7218;51.480;7.006;2023-05-12T12:08:50;100638.44;;;21.30;70.53
14269;BME280;7218;51.480;7.006;2023-05-12T12:11:17;100637.91;;;21.23;72.37
14269;BME280;7218;51.480;7.006;2023-05-12T12:13:47;100634.38;;;21.38;71.65
14269;BME280;7218;51.480;7.006;2023-05-12T12:16:15;100642.19;;;21.41;71.24
14269;BME280;7218;51.480;7.006;2023-05-12T12:18:41;100646.91;;;21.36;70.52
14269;BME280;7218;51.480;7.006;2023-05-12T12:21:08;100642.44;;;21.37;70.85
14269;BME280;7218;51.480;7.006;2023-05-12T12:23:34;100643.84;;;21.42;73.11
14269;BME280;7218;51.480;7.006;2023-05-12T12:26:01;100649.31;;;21.25;69.93
14269;BME280;7218;51.480;7.006;2023-05-12T12:28:27;100646.22;;;21.17;70.69
14269;BME280;7218;51.480;7.006;2023-05-12T12:30:54;100645.22;;;21.20;71.55
14269;BME280;7218;51.480;7.006;2023-05-12T12:33:21;100644.75;;;21.27;72.82
14269;BME280;7218;51.480;7.006;2023-05-12T12:35:48;100648.88;;;21.17;69.88
14269;BME280;7218;51.480;7.006;2023-05-12T12:38:15;100646.91;;;21.05;73.07
14269;BME280;7218;51.480;7.006;2023-05-12T12:40:42;100647.41;;;21.12;74.51
14269;BME280;7218;51.480;7.006;2023-05-12T12:43:08;100651.28;;;21.06;72.75
14269;BME280;7218;51.480;7.006;2023-05-12T12:45:35;100640.22;;;20.98;74.84
14269;BME280;7218;51.480;7.006;2023-05-12T12:48:01;100644.19;;;21.07;74.61
14269;BME280;7218;51.480;7.006;2023-05-12T12:50:29;100646.66;;;21.25;73.43
14269;BME280;7218;51.480;7.006;2023-05-12T12:52:56;100645.72;;;21.26;71.04